Time;durP1;ratioP1;P1;durP2;ratioP2;P2;SDS_P1;SDS_P2;PMS_P1;PMS_P2;Temp;Humidity;BMP_temperature;BMP_pressure;BME280_temperature;BME280_humidity;BME280_pressure;Samples;Min_cycle;Max_cycle;Signal;HPM_P1;HPM_P2
2023/05/23 00:00:16;;;;;;;11.95;10.55;;;15.70;99.90;;;;;;5014534;28;20722;-79
2023/05/23 00:02:43;;;;;;;11.67;10.27;;;15.70;99.90;;;;;;5019049;28;20260;-80
2023/05/23 00:05:10;;;;;;;10.97;9.87;;;15.70;99.90;;;;;;5021381;28;20221;-80
2023/05/23 00:07:38;;;;;;;14.53;10.47;;;15.70;99.90;;;;;;5029458;28;20217;-80
2023/05/23 00:10:06;;;;;;;11.50;10.43;;;15.70;99.90;;;;;;5020792;28;20952;-80
2023/05/23 00:12:33;;;;;;;10.73;9.60;;;15.70;99.90;;;;;;5015898;28;20237;-80
2023/05/23 00:15:00;;;;;;;11.10;10.10;;;15.70;99.90;;;;;;5014132;28;20587;-80
2023/05/23 00:17:27;;;;;;;11.73;10.07;;;15.70;99.90;;;;;;5016335;28;20239;-79
2023/05/23 00:19:55;;;;;;;12.07;10.88;;;15.70;99.90;;;;;;5014141;28;20232;-80
2023/05/23 00:22:22;;;;;;;11.47;10.27;;;15.70;99.90;;;;;;5021314;28;20220;-79
2023/05/23 00:24:50;;;;;;;11.43;10.23;;;15.70;99.90;;;;;;5017091;28;20644;-79
2023/05/23 00:27:16;;;;;;;11.47;10.07;;;15.60;99.90;;;;;;5021896;28;20566;-79
2023/05/23 00:29:43;;;;;;;12.87;10.93;;;15.60;99.90;;;;;;5017178;28;20714;-79
2023/05/23 00:32:10;;;;;;;11.73;10.40;;;15.60;99.90;;;;;;5014947;28;20251;-78
2023/05/23 00:34:36;;;;;;;12.00;10.80;;;15.60;99.90;;;;;;5013443;28;20618;-79
2023/05/23 00:37:04;;;;;;;12.27;10.30;;;15.60;99.90;;;;;;5018031;28;20537;-79
2023/05/23 00:39:31;;;;;;;12.03;10.67;;;15.50;99.90;;;;;;5013544;28;20236;-79
2023/05/23 00:42:04;;;;;;;10.60;9.60;;;15.50;99.90;;;;;;5016806;28;20331;-79
2023/05/23 00:44:31;;;;;;;12.13;10.17;;;15.40;99.90;;;;;;5023216;28;20231;-79
2023/05/23 00:46:58;;;;;;;12.30;10.97;;;15.40;99.90;;;;;;5015359;28;20230;-79
2023/05/23 00:49:26;;;;;;;12.07;10.90;;;15.30;99.90;;;;;;5013965;28;20511;-79
2023/05/23 00:51:53;;;;;;;12.17;10.60;;;15.30;99.90;;;;;;5012352;28;20218;-79
2023/05/23 00:54:26;;;;;;;12.43;11.13;;;15.20;99.90;;;;;;5015046;28;20224;-79
2023/05/23 00:56:54;;;;;;;11.23;10.17;;;15.20;99.90;;;;;;5018162;28;20227;-80
2023/05/23 00:59:24;;;;;;;12.13;10.93;;;15.10;99.90;;;;;;5015269;28;20771;-80
2023/05/23 01:01:52;;;;;;;11.70;10.70;;;15.10;99.90;;;;;;5011022;28;20280;-80
2023/05/23 01:04:19;;;;;;;12.50;11.27;;;15.10;99.90;;;;;;5013202;28;20232;-80
2023/05/23 01:06:47;;;;;;;12.23;11.00;;;15.10;99.90;;;;;;5012472;28;20232;-80
2023/05/23 01:09:16;;;;;;;11.33;10.33;;;15.10;99.90;;;;;;5012675;28;20301;-80
2023/05/23 01:11:50;;;;;;;11.93;10.83;;;15.00;99.90;;;;;;5017075;28;20210;-79
2023/05/23 01:14:22;;;;;;;11.10;10.20;;;15.00;99.90;;;;;;5016196;28;20270;-80
2023/05/23 01:16:55;;;;;;;11.67;10.53;;;15.00;99.90;;;;;;5012064;28;20766;-79
2023/05/23 01:19:53;;;;;;;13.03;11.23;;;15.00;99.90;;;;;;5017685;28;20225;-79
2023/05/23 01:22:38;;;;;;;13.00;11.23;;;14.90;99.90;;;;;;4993760;28;20976;-79
2023/05/23 01:25:11;;;;;;;12.20;11.00;;;14.80;99.90;;;;;;5007299;28;20295;-79
2023/05/23 01:27:49;;;;;;;12.00;10.87;;;14.80;99.90;;;;;;5019052;28;20236;-80
2023/05/23 01:30:19;;;;;;;17.40;12.80;;;14.70;99.90;;;;;;5010902;28;20217;-79
2023/05/23 01:32:47;;;;;;;14.70;12.63;;;14.70;99.90;;;;;;5016090;28;20221;-80
2023/05/23 01:35:19;;;;;;;14.37;12.93;;;14.70;99.90;;;;;;5014058;28;20225;-79
2023/05/23 01:37:46;;;;;;;14.47;12.90;;;14.60;99.90;;;;;;5012600;28;20316;-79
2023/05/23 01:40:12;;;;;;;13.33;11.93;;;14.60;99.90;;;;;;5014164;28;20239;-80
2023/05/23 01:42:39;;;;;;;13.70;12.40;;;14.60;99.90;;;;;;5013122;28;20762;-80
2023/05/23 01:45:09;;;;;;;14.80;13.33;;;14.60;99.90;;;;;;5015994;28;20593;-80
2023/05/23 01:47:37;;;;;;;14.47;13.07;;;14.60;99.90;;;;;;5016640;28;20278;-80
2023/05/23 01:50:06;;;;;;;14.50;12.97;;;14.60;99.90;;;;;;5016124;28;20691;-80
2023/05/23 01:52:33;;;;;;;16.63;13.93;;;14.60;99.90;;;;;;5016649;28;20221;-79
2023/05/23 01:55:00;;;;;;;14.63;13.30;;;14.70;99.90;;;;;;5014474;28;20225;-79
2023/05/23 01:57:29;;;;;;;15.13;13.57;;;14.70;99.90;;;;;;5020520;28;20232;-79
2023/05/23 01:59:56;;;;;;;15.70;14.20;;;14.70;99.90;;;;;;5018202;28;20221;-79
2023/05/23 02:02:25;;;;;;;15.80;14.30;;;14.80;99.90;;;;;;5011168;28;20226;-79
2023/05/23 02:04:52;;;;;;;16.23;14.63;;;14.80;99.90;;;;;;5020629;28;20323;-79
2023/05/23 02:07:21;;;;;;;16.03;14.43;;;14.90;99.90;;;;;;5051519;23;20231;-78
2023/05/23 02:09:48;;;;;;;13.90;12.60;;;14.90;99.90;;;;;;5004134;28;20224;-77
2023/05/23 02:12:15;;;;;;;14.00;12.70;;;15.00;99.90;;;;;;5009109;28;21011;-78
2023/05/23 02:14:42;;;;;;;15.00;13.10;;;15.00;99.90;;;;;;5017760;28;22399;-77
2023/05/23 02:17:09;;;;;;;16.47;13.27;;;15.10;99.90;;;;;;5019168;28;20234;-78
2023/05/23 02:19:37;;;;;;;14.50;13.07;;;15.10;99.90;;;;;;5019484;28;20224;-78
2023/05/23 02:22:04;;;;;;;13.73;12.40;;;15.10;99.90;;;;;;5013552;28;20305;-77
2023/05/23 02:24:31;;;;;;;11.60;10.40;;;15.10;99.90;;;;;;5017636;28;20252;-78
2023/05/23 02:26:58;;;;;;;10.47;9.50;;;15.20;99.90;;;;;;5019329;28;20225;-78
2023/05/23 02:29:24;;;;;;;13.53;12.30;;;15.20;99.90;;;;;;5018773;28;20232;-78
2023/05/23 02:31:51;;;;;;;13.53;11.70;;;15.20;99.90;;;;;;5021537;28;20241;-76
2023/05/23 02:34:18;;;;;;;18.53;16.57;;;15.20;99.90;;;;;;5023464;28;20224;-77
2023/05/23 02:36:46;;;;;;;18.53;16.73;;;15.20;99.90;;;;;;5012195;28;20965;-76
2023/05/23 02:39:13;;;;;;;26.43;23.77;;;15.10;99.90;;;;;;5016231;28;20225;-77
2023/05/23 02:41:40;;;;;;;28.27;25.37;;;15.20;99.90;;;;;;5015961;28;20228;-76
2023/05/23 02:44:07;;;;;;;32.53;29.37;;;15.20;99.90;;;;;;5016232;28;20212;-75
2023/05/23 02:46:33;;;;;;;34.87;31.30;;;15.10;99.90;;;;;;5016766;28;20233;-76
2023/05/23 02:49:00;;;;;;;36.27;32.40;;;15.10;99.90;;;;;;5018494;28;20395;-76
2023/05/23 02:51:27;;;;;;;36.67;32.97;;;15.10;99.90;;;;;;5020857;28;20723;-77
2023/05/23 02:53:55;;;;;;;38.47;34.57;;;15.10;99.90;;;;;;5012552;28;20812;-77
2023/05/23 02:56:22;;;;;;;37.43;33.67;;;15.00;99.90;;;;;;5016652;28;20221;-77
2023/05/23 02:58:49;;;;;;;40.23;36.07;;;15.10;99.90;;;;;;5016714;28;20909;-77
2023/05/23 03:01:16;;;;;;;40.00;35.80;;;15.00;99.90;;;;;;5020505;28;20264;-77
2023/05/23 03:03:43;;;;;;;42.27;37.93;;;15.00;99.90;;;;;;5015085;28;20279;-77
2023/05/23 03:06:13;;;;;;;41.87;37.50;;;15.00;99.90;;;;;;5017844;28;20225;-77
2023/05/23 03:08:41;;;;;;;44.97;40.17;;;15.00;99.90;;;;;;5017529;28;20258;-76
2023/05/23 03:11:10;;;;;;;45.17;40.33;;;15.00;99.90;;;;;;5016018;28;20255;-77
2023/05/23 03:13:36;;;;;;;46.07;40.87;;;15.00;99.90;;;;;;5013759;28;20294;-76
2023/05/23 03:16:03;;;;;;;44.23;39.50;;;15.00;99.90;;;;;;5020037;28;20225;-76
2023/05/23 03:18:30;;;;;;;44.63;39.73;;;15.00;99.90;;;;;;5022173;28;20232;-76
2023/05/23 03:20:57;;;;;;;47.23;41.17;;;15.00;99.90;;;;;;5017111;28;20320;-76
2023/05/23 03:23:24;;;;;;;45.43;39.17;;;15.00;99.90;;;;;;5015578;28;20235;-77
2023/05/23 03:25:51;;;;;;;49.83;42.13;;;14.90;99.90;;;;;;5015655;28;20236;-77
2023/05/23 03:28:19;;;;;;;47.00;39.23;;;14.90;99.90;;;;;;5011026;28;20220;-77
2023/05/23 03:30:45;;;;;;;52.93;40.60;;;14.90;99.90;;;;;;5021531;28;20860;-76
2023/05/23 03:33:12;;;;;;;56.30;40.10;;;14.90;99.90;;;;;;5020180;28;20229;-75
2023/05/23 03:35:39;;;;;;;57.23;41.23;;;14.90;99.90;;;;;;5024220;28;20953;-76
2023/05/23 03:38:06;;;;;;;49.40;37.77;;;14.90;99.90;;;;;;5018566;28;20304;-76
2023/05/23 03:40:33;;;;;;;55.53;39.67;;;14.90;99.90;;;;;;5015927;28;20232;-77
2023/05/23 03:43:04;;;;;;;56.93;41.83;;;14.80;99.90;;;;;;5014268;28;20227;-77
2023/05/23 03:45:34;;;;;;;62.53;40.70;;;14.80;99.90;;;;;;5020893;28;20287;-76
2023/05/23 03:48:04;;;;;;;54.20;40.17;;;14.80;99.90;;;;;;5013621;28;20245;-75
2023/05/23 03:50:31;;;;;;;62.10;40.33;;;14.80;99.90;;;;;;5018864;28;20229;-76
2023/05/23 03:52:57;;;;;;;60.43;39.93;;;14.80;99.90;;;;;;5014015;28;20228;-76
2023/05/23 03:55:25;;;;;;;64.30;40.37;;;14.80;99.90;;;;;;5019211;28;20778;-76
2023/05/23 03:57:52;;;;;;;58.37;38.67;;;14.70;99.90;;;;;;5012531;28;20241;-76
2023/05/23 04:00:20;;;;;;;47.70;36.40;;;14.70;99.90;;;;;;5015974;28;20404;-76
2023/05/23 04:02:51;;;;;;;51.03;34.03;;;14.70;99.90;;;;;;5009127;28;20225;-76
2023/05/23 04:05:20;;;;;;;46.63;32.67;;;14.70;99.90;;;;;;5012683;28;20278;-76
2023/05/23 04:07:50;;;;;;;48.60;32.83;;;14.70;99.90;;;;;;5011216;28;20291;-76
2023/05/23 04:10:17;;;;;;;43.57;31.33;;;14.70;99.90;;;;;;5009957;28;20727;-76
2023/05/23 04:12:44;;;;;;;40.97;29.53;;;14.60;99.90;;;;;;5010042;28;20297;-76
2023/05/23 04:15:14;;;;;;;37.80;29.70;;;14.60;99.90;;;;;;5010422;28;20661;-76
2023/05/23 04:17:53;;;;;;;37.20;28.93;;;14.60;99.90;;;;;;5016056;28;20269;-77
2023/05/23 04:20:20;;;;;;;40.70;30.67;;;14.60;99.90;;;;;;5016857;28;20315;-76
2023/05/23 04:22:46;;;;;;;40.23;29.93;;;14.50;99.90;;;;;;5016109;28;20245;-77
2023/05/23 04:25:13;;;;;;;42.00;31.40;;;14.50;99.90;;;;;;5010734;28;20219;-78
2023/05/23 04:27:47;;;;;;;45.73;30.93;;;14.50;99.90;;;;;;5012109;28;20227;-79
2023/05/23 04:30:16;;;;;;;35.67;29.27;;;14.50;99.90;;;;;;5013010;28;20225;-80
2023/05/23 04:32:43;;;;;;;42.87;30.73;;;14.50;99.90;;;;;;5006416;28;20225;-79
2023/05/23 04:35:12;;;;;;;46.13;29.87;;;14.50;99.90;;;;;;5014876;28;20695;-79
2023/05/23 04:37:41;;;;;;;40.63;31.90;;;14.50;99.90;;;;;;5010995;28;20235;-80
2023/05/23 04:40:09;;;;;;;46.57;32.27;;;14.50;99.90;;;;;;5018574;28;20240;-80
2023/05/23 04:42:55;;;;;;;47.70;31.63;;;14.50;99.90;;;;;;5014749;28;20232;-80
2023/05/23 04:45:37;;;;;;;44.90;33.00;;;14.50;99.90;;;;;;5010495;28;20803;-81
2023/05/23 04:48:16;;;;;;;49.97;33.77;;;14.40;99.90;;;;;;5017940;28;20216;-80
2023/05/23 04:50:46;;;;;;;38.03;31.40;;;14.50;99.90;;;;;;5016329;28;20230;-81
2023/05/23 04:53:13;;;;;;;42.70;32.03;;;14.40;99.90;;;;;;5012235;28;20224;-80
2023/05/23 04:55:40;;;;;;;47.53;32.17;;;14.40;99.90;;;;;;5011432;28;20279;-80
2023/05/23 04:58:13;;;;;;;44.73;31.43;;;14.40;99.90;;;;;;5014568;28;20230;-81
2023/05/23 05:00:39;;;;;;;48.63;32.57;;;14.40;99.90;;;;;;5011084;28;20277;-80
2023/05/23 05:03:08;;;;;;;46.63;32.47;;;14.40;99.90;;;;;;5017944;28;20268;-79
2023/05/23 05:05:38;;;;;;;47.13;34.20;;;14.40;99.90;;;;;;5016544;28;20252;-80
2023/05/23 05:08:06;;;;;;;43.23;32.87;;;14.30;99.90;;;;;;5018136;28;20315;-80
2023/05/23 05:10:34;;;;;;;53.13;34.20;;;14.30;99.90;;;;;;5018370;28;20302;-81
2023/05/23 05:13:02;;;;;;;50.73;33.50;;;14.30;99.90;;;;;;5015650;28;20326;-81
2023/05/23 05:15:36;;;;;;;46.03;32.60;;;14.30;99.90;;;;;;5015175;28;20216;-80
2023/05/23 05:18:03;;;;;;;51.97;33.43;;;14.30;99.90;;;;;;5017713;28;20552;-81
2023/05/23 05:20:30;;;;;;;50.43;33.80;;;14.20;99.90;;;;;;5023511;28;20240;-81
2023/05/23 05:22:58;;;;;;;51.93;35.07;;;14.20;99.90;;;;;;5020668;28;20227;-81
2023/05/23 05:25:30;;;;;;;50.27;33.33;;;14.20;99.90;;;;;;5024697;28;20687;-81
2023/05/23 05:27:57;;;;;;;49.63;34.37;;;14.20;99.90;;;;;;5016910;28;20702;-81
2023/05/23 05:30:25;;;;;;;47.50;33.03;;;14.10;99.90;;;;;;5016304;28;20257;-81
2023/05/23 05:32:57;;;;;;;47.97;33.40;;;14.10;99.90;;;;;;5024216;28;20408;-81
2023/05/23 05:35:24;;;;;;;51.77;33.67;;;14.10;99.90;;;;;;5025508;28;20228;-81
2023/05/23 05:37:51;;;;;;;47.37;32.93;;;14.10;99.90;;;;;;5017705;28;20236;-81
2023/05/23 05:40:18;;;;;;;48.33;31.77;;;14.10;99.90;;;;;;5026382;28;20220;-80
2023/05/23 05:42:46;;;;;;;48.30;32.67;;;14.10;99.90;;;;;;5026055;28;20214;-81
2023/05/23 05:45:13;;;;;;;52.00;32.07;;;14.10;99.90;;;;;;5022449;28;20292;-81
2023/05/23 05:47:42;;;;;;;48.30;32.87;;;14.10;99.90;;;;;;5021998;28;20322;-81
2023/05/23 05:50:10;;;;;;;49.23;32.90;;;14.10;99.90;;;;;;5017775;28;20913;-81
2023/05/23 05:52:38;;;;;;;48.80;33.40;;;14.10;99.90;;;;;;5016472;28;20239;-81
2023/05/23 05:55:09;;;;;;;48.50;33.10;;;14.10;99.90;;;;;;5016633;28;20697;-81
2023/05/23 05:57:37;;;;;;;48.40;32.73;;;14.10;99.90;;;;;;5019322;28;20243;-81
2023/05/23 06:00:11;;;;;;;54.37;34.17;;;14.10;99.90;;;;;;5020764;28;20347;-81
2023/05/23 06:02:46;;;;;;;49.43;33.80;;;14.10;99.90;;;;;;5001259;28;20225;-81
2023/05/23 06:05:15;;;;;;;49.63;32.37;;;14.10;99.90;;;;;;5037657;28;20227;-81
2023/05/23 06:07:42;;;;;;;50.33;33.40;;;14.10;99.90;;;;;;5028335;28;20236;-81
2023/05/23 06:10:11;;;;;;;49.03;33.87;;;14.20;99.90;;;;;;5024439;28;20613;-81
2023/05/23 06:12:38;;;;;;;50.60;33.83;;;14.20;99.90;;;;;;5022854;28;20258;-80
2023/05/23 06:15:08;;;;;;;53.37;34.80;;;14.20;99.90;;;;;;5020713;28;20228;-81
2023/05/23 06:17:36;;;;;;;54.50;35.13;;;14.20;99.90;;;;;;5045001;28;20308;-81
2023/05/23 06:20:03;;;;;;;51.33;35.83;;;14.30;99.90;;;;;;5024838;28;20706;-81
2023/05/23 06:22:31;;;;;;;56.77;35.20;;;14.30;99.90;;;;;;5025486;28;20235;-80
2023/05/23 06:24:57;;;;;;;58.97;35.60;;;14.30;99.90;;;;;;5022666;28;20897;-80
2023/05/23 06:27:24;;;;;;;53.50;35.90;;;14.30;99.90;;;;;;5018065;28;20235;-81
2023/05/23 06:29:51;;;;;;;59.73;37.83;;;14.30;99.90;;;;;;5026391;28;20221;-80
2023/05/23 06:32:19;;;;;;;58.37;36.97;;;14.30;99.90;;;;;;5025168;28;20227;-81
2023/05/23 06:34:45;;;;;;;54.33;36.50;;;14.30;99.90;;;;;;5026687;28;20778;-81
2023/05/23 06:37:12;;;;;;;57.97;37.33;;;14.20;99.90;;;;;;5020656;28;20221;-81
2023/05/23 06:39:39;;;;;;;58.67;37.33;;;14.20;99.90;;;;;;5025558;28;20596;-81
2023/05/23 06:42:06;;;;;;;58.20;36.10;;;14.20;99.90;;;;;;5023950;28;20235;-81
2023/05/23 06:44:49;;;;;;;55.73;36.23;;;14.20;99.90;;;;;;5021778;28;20228;-82
2023/05/23 06:47:19;;;;;;;50.87;35.20;;;14.30;99.90;;;;;;5027932;28;20426;-81
2023/05/23 06:49:45;;;;;;;52.07;34.67;;;14.30;99.90;;;;;;5014666;28;20217;-81
2023/05/23 06:52:12;;;;;;;48.17;33.23;;;14.30;99.90;;;;;;5021671;28;20224;-81
2023/05/23 06:54:39;;;;;;;49.13;33.93;;;14.30;99.90;;;;;;5022237;28;20244;-81
2023/05/23 06:57:06;;;;;;;45.53;32.67;;;14.30;99.90;;;;;;5025610;28;20235;-81
2023/05/23 06:59:32;;;;;;;44.50;30.67;;;14.30;99.90;;;;;;5023287;28;20246;-81
2023/05/23 07:02:00;;;;;;;36.53;26.40;;;14.20;99.90;;;;;;5020639;28;20219;-82
2023/05/23 07:04:28;;;;;;;36.30;26.63;;;14.20;99.90;;;;;;5025133;28;20224;-80
2023/05/23 07:06:58;;;;;;;36.30;26.50;;;14.30;99.90;;;;;;5019573;28;20313;-80
2023/05/23 07:09:25;;;;;;;45.13;30.93;;;14.20;99.90;;;;;;5016705;28;20248;-80
2023/05/23 07:12:00;;;;;;;44.17;30.80;;;14.20;99.90;;;;;;5017989;28;20690;-80
2023/05/23 07:14:27;;;;;;;43.40;30.13;;;14.20;99.90;;;;;;5022894;28;20224;-80
2023/05/23 07:16:54;;;;;;;39.87;30.33;;;14.20;99.90;;;;;;5013206;28;20280;-80
2023/05/23 07:19:21;;;;;;;38.30;28.00;;;14.20;99.90;;;;;;5022634;28;20221;-80
2023/05/23 07:21:52;;;;;;;34.33;24.60;;;14.20;99.90;;;;;;5023095;28;20773;-80
2023/05/23 07:24:19;;;;;;;32.37;23.47;;;14.20;99.90;;;;;;5024113;28;20273;-80
2023/05/23 07:26:47;;;;;;;31.23;24.57;;;14.20;99.90;;;;;;5016406;28;20255;-80
2023/05/23 07:29:14;;;;;;;30.47;23.07;;;14.10;99.90;;;;;;5022763;28;20485;-80
2023/05/23 07:31:42;;;;;;;27.70;22.83;;;14.20;99.90;;;;;;5017015;28;20347;-80
2023/05/23 07:34:10;;;;;;;25.33;19.70;;;14.20;99.90;;;;;;5019969;28;20327;-79
2023/05/23 07:36:46;;;;;;;22.97;17.77;;;14.20;99.90;;;;;;5019401;28;20238;-80
2023/05/23 07:39:20;;;;;;;21.10;16.37;;;14.20;99.90;;;;;;5022547;28;20231;-80
2023/05/23 07:41:47;;;;;;;16.93;13.93;;;14.20;99.90;;;;;;5021408;28;20224;-80
2023/05/23 07:44:14;;;;;;;14.60;12.63;;;14.20;99.90;;;;;;5018309;28;20215;-80
2023/05/23 07:46:41;;;;;;;15.87;11.73;;;14.20;99.90;;;;;;5015163;28;20756;-80
2023/05/23 07:49:07;;;;;;;12.90;10.97;;;14.20;99.90;;;;;;5021890;28;20464;-80
2023/05/23 07:51:34;;;;;;;15.30;11.63;;;14.20;99.90;;;;;;5020060;28;20222;-80
2023/05/23 07:54:01;;;;;;;12.57;10.87;;;14.20;99.90;;;;;;5017828;28;20237;-79
2023/05/23 07:56:29;;;;;;;12.60;10.73;;;14.10;99.90;;;;;;5020649;28;20320;-79
2023/05/23 07:58:56;;;;;;;13.20;11.37;;;14.10;99.90;;;;;;5014509;28;20253;-79
2023/05/23 08:01:24;;;;;;;14.50;10.93;;;14.10;99.90;;;;;;5019246;28;20298;-79
2023/05/23 08:04:11;;;;;;;11.97;9.63;;;14.10;99.90;;;;;;5022895;28;20232;-79
2023/05/23 08:06:46;;;;;;;11.80;9.57;;;14.10;99.90;;;;;;5018143;28;20301;-79
2023/05/23 08:09:13;;;;;;;13.20;9.73;;;14.10;99.90;;;;;;5018566;28;20255;-79
2023/05/23 08:11:46;;;;;;;11.23;8.90;;;14.10;99.90;;;;;;5020526;28;20255;-79
2023/05/23 08:14:13;;;;;;;12.13;8.60;;;14.10;99.90;;;;;;5021854;28;20215;-79
2023/05/23 08:16:49;;;;;;;12.17;8.60;;;14.20;99.90;;;;;;5022967;28;20226;-79
2023/05/23 08:19:21;;;;;;;8.80;7.90;;;14.20;99.90;;;;;;5019524;28;20238;-80
2023/05/23 08:21:48;;;;;;;8.47;7.57;;;14.30;99.90;;;;;;5016923;28;20329;-79
2023/05/23 08:24:15;;;;;;;8.33;7.47;;;14.30;99.90;;;;;;5025054;28;20235;-79
2023/05/23 08:26:43;;;;;;;9.53;7.40;;;14.40;99.90;;;;;;5015816;28;20694;-79
2023/05/23 08:29:13;;;;;;;8.27;7.10;;;14.40;99.90;;;;;;5020266;28;20223;-79
2023/05/23 08:31:41;;;;;;;8.40;7.20;;;14.50;99.90;;;;;;5012235;28;20250;-80
2023/05/23 08:34:09;;;;;;;8.07;6.87;;;14.50;99.90;;;;;;5038014;28;20377;-80
2023/05/23 08:36:38;;;;;;;8.03;7.23;;;14.60;99.90;;;;;;5012073;28;20236;-80
2023/05/23 08:39:07;;;;;;;9.63;7.27;;;14.60;99.90;;;;;;5018001;28;20227;-80
2023/05/23 08:41:39;;;;;;;8.40;7.53;;;14.70;99.90;;;;;;5015627;28;20322;-80
2023/05/23 08:44:10;;;;;;;9.57;6.87;;;14.80;99.90;;;;;;5017733;28;20575;-80
2023/05/23 08:46:48;;;;;;;7.33;6.63;;;14.80;99.90;;;;;;5019958;28;20235;-80
2023/05/23 08:49:41;;;;;;;7.30;6.30;;;14.90;99.90;;;;;;5017039;28;20233;-80
2023/05/23 08:52:12;;;;;;;8.63;6.37;;;14.90;99.90;;;;;;5016176;28;20226;-81
2023/05/23 08:54:41;;;;;;;7.43;6.10;;;14.90;99.90;;;;;;5034635;28;20713;-81
2023/05/23 08:57:07;;;;;;;7.83;6.23;;;14.90;99.90;;;;;;5015636;28;20619;-80
2023/05/23 08:59:41;;;;;;;6.63;5.73;;;14.90;99.90;;;;;;5016268;28;20667;-80
2023/05/23 09:02:11;;;;;;;8.37;5.70;;;14.80;99.90;;;;;;5015495;28;20235;-80
2023/05/23 09:04:38;;;;;;;6.73;5.53;;;14.90;99.90;;;;;;5018930;28;20303;-81
2023/05/23 09:07:16;;;;;;;6.03;5.00;;;14.90;99.90;;;;;;5017889;28;20227;-80
2023/05/23 09:09:44;;;;;;;7.37;4.90;;;14.90;99.90;;;;;;5021567;28;20603;-80
2023/05/23 09:12:14;;;;;;;6.63;4.70;;;15.00;99.90;;;;;;5012729;28;20220;-81
2023/05/23 09:14:44;;;;;;;7.80;4.90;;;15.00;99.90;;;;;;5017049;28;20235;-80
2023/05/23 09:17:16;;;;;;;5.53;4.73;;;15.00;99.90;;;;;;5011733;28;22226;-80
2023/05/23 09:19:42;;;;;;;5.47;4.80;;;14.90;99.90;;;;;;5019151;28;20705;-81
2023/05/23 09:22:25;;;;;;;6.93;4.60;;;14.90;99.90;;;;;;5018937;28;20318;-81
2023/05/23 09:25:00;;;;;;;6.47;5.50;;;14.80;99.90;;;;;;5016633;28;20228;-80
2023/05/23 09:27:27;;;;;;;7.50;4.93;;;14.70;99.90;;;;;;5017195;28;21919;-80
2023/05/23 09:29:54;;;;;;;8.43;5.37;;;14.60;99.90;;;;;;5020622;28;20936;-81
2023/05/23 09:32:22;;;;;;;7.47;5.10;;;14.60;99.90;;;;;;5016123;28;20346;-80
2023/05/23 09:34:56;;;;;;;7.57;5.23;;;14.50;99.90;;;;;;5016405;28;20234;-81
2023/05/23 09:37:30;;;;;;;6.13;5.23;;;14.40;99.90;;;;;;5022138;28;20234;-81
2023/05/23 09:39:57;;;;;;;7.67;5.80;;;14.30;99.90;;;;;;5019710;28;20227;-80
2023/05/23 09:42:23;;;;;;;7.00;5.97;;;14.20;99.90;;;;;;5015973;28;21120;-80
2023/05/23 09:44:50;;;;;;;11.00;7.83;;;14.00;99.90;;;;;;5020492;28;20235;-81
2023/05/23 09:47:17;;;;;;;9.27;7.90;;;14.00;99.90;;;;;;5022979;28;20297;-80
2023/05/23 09:49:46;;;;;;;11.70;8.57;;;13.90;99.90;;;;;;5015792;28;20224;-80
2023/05/23 09:52:13;;;;;;;13.17;8.13;;;13.80;99.90;;;;;;5019739;28;20224;-80
2023/05/23 09:54:40;;;;;;;10.80;8.03;;;13.70;99.90;;;;;;5023812;28;20219;-80
2023/05/23 09:57:10;;;;;;;11.63;7.87;;;13.60;99.90;;;;;;5021424;28;20243;-80
2023/05/23 09:59:40;;;;;;;12.90;7.67;;;13.40;99.90;;;;;;5018181;28;20274;-79
2023/05/23 10:02:10;;;;;;;12.50;7.50;;;13.30;99.90;;;;;;5025988;28;20242;-80
2023/05/23 10:04:39;;;;;;;10.10;7.03;;;13.20;99.90;;;;;;5015986;28;20693;-80
2023/05/23 10:07:16;;;;;;;9.80;7.07;;;13.10;99.90;;;;;;5020119;28;20684;-80
2023/05/23 10:09:45;;;;;;;10.43;6.10;;;13.00;99.90;;;;;;5028790;28;20226;-80
2023/05/23 10:12:42;;;;;;;8.40;6.13;;;13.00;99.90;;;;;;5023868;28;20817;-80
2023/05/23 10:15:11;;;;;;;7.80;5.03;;;12.90;99.90;;;;;;5022486;28;20271;-80
2023/05/23 10:18:01;;;;;;;8.33;4.83;;;12.90;99.90;;;;;;5019702;28;20232;-80
2023/05/23 10:20:31;;;;;;;6.03;3.93;;;12.80;99.90;;;;;;5022785;28;20286;-80
2023/05/23 10:23:01;;;;;;;7.00;3.90;;;12.80;99.90;;;;;;5020435;28;20609;-80
2023/05/23 10:25:28;;;;;;;6.23;4.47;;;12.70;99.90;;;;;;5024124;28;20884;-80
2023/05/23 10:27:58;;;;;;;7.60;4.20;;;12.70;99.90;;;;;;5020382;28;20225;-82
2023/05/23 10:30:25;;;;;;;5.67;4.07;;;12.60;99.90;;;;;;5023727;28;20777;-81
2023/05/23 10:32:53;;;;;;;7.53;4.33;;;12.60;99.90;;;;;;5019189;28;21919;-81
2023/05/23 10:35:24;;;;;;;6.40;4.23;;;12.60;99.90;;;;;;5020287;28;20223;-81
2023/05/23 10:37:58;;;;;;;8.53;4.13;;;12.60;99.90;;;;;;5017522;28;20713;-81
2023/05/23 10:40:37;;;;;;;6.50;4.17;;;12.50;99.90;;;;;;5020846;28;20259;-81
2023/05/23 10:43:10;;;;;;;10.27;4.87;;;12.50;99.90;;;;;;5017704;28;20223;-81
2023/05/23 10:45:42;;;;;;;5.97;3.73;;;12.50;99.90;;;;;;5013900;28;20220;-81
2023/05/23 10:48:21;;;;;;;7.03;4.23;;;12.40;99.90;;;;;;5020925;28;20887;-80
2023/05/23 10:51:02;;;;;;;5.60;3.47;;;12.40;99.90;;;;;;5019679;28;20728;-81
2023/05/23 10:53:29;;;;;;;6.70;3.50;;;12.40;99.90;;;;;;5018694;28;20279;-80
2023/05/23 10:55:57;;;;;;;7.07;3.93;;;12.30;99.90;;;;;;5018825;28;20735;-81
2023/05/23 10:58:24;;;;;;;5.20;3.23;;;12.30;99.90;;;;;;5019313;28;20232;-81
2023/05/23 11:00:53;;;;;;;7.37;3.33;;;12.30;99.90;;;;;;5021409;28;20239;-81
2023/05/23 11:03:32;;;;;;;7.87;3.40;;;12.30;99.90;;;;;;5003642;28;20220;-82
2023/05/23 11:05:59;;;;;;;7.77;3.17;;;12.30;99.90;;;;;;5022958;28;20312;-81
2023/05/23 11:08:26;;;;;;;6.40;3.13;;;12.30;99.90;;;;;;5017857;28;20231;-81
2023/05/23 11:11:00;;;;;;;9.17;3.13;;;12.30;99.90;;;;;;5011075;28;20701;-80
2023/05/23 11:14:01;;;;;;;8.27;3.00;;;12.40;99.90;;;;;;5012411;28;20222;-80
2023/05/23 11:16:30;;;;;;;5.80;3.10;;;12.40;99.90;;;;;;5008535;28;20287;-80
2023/05/23 11:19:21;;;;;;;9.27;3.27;;;12.50;99.90;;;;;;5021818;28;20234;-80
2023/05/23 11:21:52;;;;;;;8.57;3.60;;;12.50;99.90;;;;;;5017215;28;20239;-80
2023/05/23 11:24:18;;;;;;;9.67;3.80;;;12.50;99.90;;;;;;5024474;28;20222;-80
2023/05/23 11:26:53;;;;;;;7.03;2.87;;;12.60;99.90;;;;;;5024024;28;20882;-81
2023/05/23 11:29:21;;;;;;;11.37;3.80;;;12.60;99.90;;;;;;5019018;28;20219;-80
2023/05/23 11:31:48;;;;;;;7.93;3.27;;;12.70;99.90;;;;;;5022306;28;20230;-81
2023/05/23 11:34:15;;;;;;;11.87;3.97;;;12.80;99.90;;;;;;5022353;28;20226;-80
2023/05/23 11:36:42;;;;;;;11.10;4.67;;;12.80;99.90;;;;;;5023663;28;20245;-80
2023/05/23 11:39:09;;;;;;;13.20;3.97;;;12.90;99.90;;;;;;5010205;28;20798;-81
2023/05/23 11:41:35;;;;;;;13.80;5.77;;;13.00;99.90;;;;;;5012704;28;20624;-80
2023/05/23 11:44:11;;;;;;;10.50;3.80;;;13.20;99.90;;;;;;5017799;28;20226;-80
2023/05/23 11:46:39;;;;;;;7.03;3.70;;;13.40;99.90;;;;;;5017335;28;20238;-81
2023/05/23 11:49:11;;;;;;;7.23;3.60;;;13.60;99.90;;;;;;5018562;28;20217;-81
2023/05/23 11:51:38;;;;;;;10.37;3.67;;;13.80;99.90;;;;;;5013548;28;20230;-81
2023/05/23 11:54:05;;;;;;;7.57;3.40;;;14.10;99.90;;;;;;5023662;28;20603;-80
2023/05/23 11:56:38;;;;;;;8.70;3.97;;;14.30;99.90;;;;;;5018243;28;20267;-81
2023/05/23 11:59:05;;;;;;;6.20;3.20;;;14.50;99.90;;;;;;5017559;28;20228;-80
2023/05/23 12:01:32;;;;;;;7.57;3.00;;;14.70;99.90;;;;;;5010017;28;20788;-81
2023/05/23 12:04:08;;;;;;;8.40;2.87;;;14.90;99.90;;;;;;5019441;28;20230;-81
2023/05/23 12:06:37;;;;;;;7.20;3.03;;;15.00;99.90;;;;;;5019963;28;20225;-80
2023/05/23 12:09:04;;;;;;;7.40;3.23;;;15.20;99.90;;;;;;5025129;28;20254;-80
2023/05/23 12:11:31;;;;;;;7.60;2.57;;;15.30;99.90;;;;;;5023943;28;20235;-79
2023/05/23 12:13:59;;;;;;;10.00;3.20;;;15.50;99.90;;;;;;5015245;28;20303;-80
2023/05/23 12:16:28;;;;;;;9.10;3.10;;;15.50;99.90;;;;;;5017153;28;20838;-80
2023/05/23 12:18:55;;;;;;;13.00;3.53;;;15.60;99.90;;;;;;5012068;28;20237;-80
2023/05/23 12:21:25;;;;;;;6.37;3.00;;;15.60;99.90;;;;;;5009925;28;20251;-80
2023/05/23 12:23:52;;;;;;;6.23;2.80;;;15.70;99.90;;;;;;5021844;28;20810;-81
2023/05/23 12:26:19;;;;;;;7.13;3.70;;;15.70;99.90;;;;;;5022132;28;20228;-80
2023/05/23 12:28:45;;;;;;;10.20;3.50;;;15.70;99.90;;;;;;5019156;28;20239;-80
2023/05/23 12:31:13;;;;;;;13.00;3.30;;;15.70;99.90;;;;;;5012626;28;20224;-80
2023/05/23 12:33:41;;;;;;;10.33;3.40;;;15.80;99.90;;;;;;5021854;28;20247;-79
2023/05/23 12:36:08;;;;;;;8.77;3.60;;;15.80;99.90;;;;;;5020615;28;20266;-80
2023/05/23 12:38:39;;;;;;;8.57;3.00;;;15.90;99.90;;;;;;5015629;28;20235;-80
2023/05/23 12:41:10;;;;;;;8.40;3.10;;;16.00;99.90;;;;;;5015894;28;20311;-80
2023/05/23 12:43:38;;;;;;;8.85;3.60;;;16.20;99.90;;;;;;5015185;28;20233;-79